»·PEaware :: UPS5072 KPDX-KABQ

UPS5072 :: KPDX-KABQ

FLIGHT INFORMATION

Flight Status: Arrived
Operator:
United Parcel Service
More flights by this operator :: More flights under this callsign
Pilot: Alex K. (14822)
Aircraft: BOEING 727-200
(B722)
More flights by this aircraft type
Origin: KPDX Portland Intl
United States
Destination: KABQ Albuquerque Intl Sunport
United States
More flights between these airports :: More routes between these airports
Route: PTLD1 IMB J523 BCE RSK TANER CURLY3
File this flight plan on PilotEdge
Remarks:
Altitude:
(Current/Filed)
31,000ft
Speed:
(Current/Filed)
486kts
Departed: 03-Oct-18 03:48 PM
Arrived: 03-Oct-18 06:11 PM
Distance/Time
Traveled:
964nm/2:23
Distance/Time
To Go:
Arrived

Flight Plot

Page will automatically refresh every two minutes.

Flight plan parsing failed; only flown route is shown


Map Options




Map Legend


Flown Route
Filed Route
Departure Airport
Arrival Airport
Navaid (VOR, NDB)
Fix

Horizontal Profiles

Position Reports

Time Latitude Longitude Heading Altitude Ground
Speed
03-Oct-18 15:29 45.583637 -122.609622 135 41ft 0kts
03-Oct-18 15:30 45.583637 -122.609622 135 41ft 0kts
03-Oct-18 15:31 45.583637 -122.609622 135 41ft 0kts
03-Oct-18 15:32 45.583637 -122.609622 135 41ft 0kts
03-Oct-18 15:33 45.583637 -122.609622 135 41ft 0kts
03-Oct-18 15:34 45.583637 -122.609622 135 41ft 0kts
03-Oct-18 15:35 45.583637 -122.609622 135 41ft 0kts
03-Oct-18 15:36 45.583637 -122.609622 135 41ft 0kts
03-Oct-18 15:37 45.583637 -122.609621 135 40ft 0kts
03-Oct-18 15:38 45.583637 -122.609621 135 40ft 0kts
03-Oct-18 15:39 45.583637 -122.609621 135 40ft 0kts
03-Oct-18 15:40 45.583637 -122.609621 135 40ft 0kts
03-Oct-18 15:41 45.583637 -122.609622 135 40ft 0kts
03-Oct-18 15:42 45.583933 -122.610040 128 40ft 2kts
03-Oct-18 15:43 45.583893 -122.610737 42 40ft 1kts
03-Oct-18 15:44 45.583860 -122.610780 44 40ft 0kts
03-Oct-18 15:45 45.583951 -122.610665 39 40ft 4kts
03-Oct-18 15:46 45.586602 -122.608213 81 40ft 15kts
03-Oct-18 15:47 45.585927 -122.601001 118 40ft 22kts
03-Oct-18 15:48 45.582270 -122.591614 118 40ft 31kts
03-Oct-18 15:49 45.580849 -122.584790 299 40ft 14kts
03-Oct-18 15:50 45.594743 -122.619916 298 504ft 169kts
03-Oct-18 15:51 45.616390 -122.688962 291 2658ft 205kts
03-Oct-18 15:52 45.640602 -122.775016 292 4468ft 260kts
03-Oct-18 15:53 45.636415 -122.868484 215 7166ft 273kts
03-Oct-18 15:54 45.571608 -122.837448 117 9572ft 298kts
03-Oct-18 15:55 45.536057 -122.737536 119 11710ft 306kts
03-Oct-18 15:56 45.498648 -122.633328 119 13657ft 316kts
03-Oct-18 15:57 45.451234 -122.528079 153 14985ft 331kts
03-Oct-18 15:58 45.413833 -122.407634 85 16000ft 379kts
03-Oct-18 15:59 45.385100 -122.268452 116 17573ft 381kts
03-Oct-18 16:00 45.348289 -122.140637 114 18947ft 390kts
03-Oct-18 16:01 45.311541 -122.008006 114 20210ft 399kts
03-Oct-18 16:02 45.271040 -121.861260 114 21454ft 407kts
03-Oct-18 16:03 45.229447 -121.711395 114 22591ft 415kts
03-Oct-18 16:04 45.186711 -121.558370 114 23627ft 422kts
03-Oct-18 16:05 45.143186 -121.403496 115 24566ft 428kts
03-Oct-18 16:06 45.098759 -121.247412 115 25428ft 433kts
03-Oct-18 16:07 45.053689 -121.089298 115 26219ft 438kts
03-Oct-18 16:08 45.008002 -120.929537 114 26993ft 441kts
03-Oct-18 16:09 44.962378 -120.770915 114 27714ft 443kts
03-Oct-18 16:10 44.915669 -120.609584 114 28312ft 447kts
03-Oct-18 16:11 44.867903 -120.448604 114 28851ft 450kts
03-Oct-18 16:12 44.819569 -120.285762 115 29348ft 454kts
03-Oct-18 16:13 44.772039 -120.125918 114 29758ft 458kts
03-Oct-18 16:14 44.724692 -119.966714 114 30135ft 461kts
03-Oct-18 16:15 44.675423 -119.807373 125 30442ft 459kts
03-Oct-18 16:16 44.600475 -119.663709 135 30712ft 457kts
03-Oct-18 16:17 44.496878 -119.566284 149 30960ft 453kts
03-Oct-18 16:18 44.391027 -119.468474 148 30968ft 464kts
03-Oct-18 16:19 44.282962 -119.367473 148 30968ft 473kts
03-Oct-18 16:20 44.173868 -119.265606 149 30963ft 482kts
03-Oct-18 16:21 44.062032 -119.162079 149 30963ft 489kts
03-Oct-18 16:22 43.948895 -119.057543 149 30967ft 495kts
03-Oct-18 16:23 43.835098 -118.953731 149 30982ft 500kts
03-Oct-18 16:24 43.719002 -118.847858 148 30983ft 504kts
03-Oct-18 16:25 43.603925 -118.743066 148 30983ft 508kts
03-Oct-18 16:26 43.489942 -118.639600 148 30983ft 511kts
03-Oct-18 16:27 43.370782 -118.537000 150 30984ft 511kts
03-Oct-18 16:28 43.250838 -118.435101 149 30983ft 513kts
03-Oct-18 16:29 43.137517 -118.336802 149 30956ft 510kts
03-Oct-18 16:30 43.025059 -118.239408 149 30944ft 506kts
03-Oct-18 16:31 42.933355 -118.160427 148 30943ft 502kts
03-Oct-18 16:32 42.817808 -118.062043 148 30944ft 496kts
03-Oct-18 16:33 42.702170 -117.963355 148 30944ft 493kts
03-Oct-18 16:34 42.586751 -117.865109 148 30944ft 490kts
03-Oct-18 16:35 42.472082 -117.767974 148 30944ft 488kts
03-Oct-18 16:36 42.358965 -117.671694 145 30942ft 486kts
03-Oct-18 16:37 42.253035 -117.562184 143 30946ft 487kts
03-Oct-18 16:38 42.143730 -117.455089 144 30945ft 493kts
03-Oct-18 16:39 42.033838 -117.348840 145 30945ft 497kts
03-Oct-18 16:40 41.921431 -117.242506 145 30944ft 500kts
03-Oct-18 16:41 41.808458 -117.136493 145 30964ft 502kts
03-Oct-18 16:42 41.697149 -117.030634 146 30987ft 502kts
03-Oct-18 16:43 41.585172 -116.924260 147 30989ft 498kts
03-Oct-18 16:44 41.473781 -116.819037 148 30988ft 495kts
03-Oct-18 16:45 41.363913 -116.715552 148 30991ft 493kts
03-Oct-18 16:46 41.252621 -116.611519 148 30987ft 491kts
03-Oct-18 16:47 41.142251 -116.508353 149 30997ft 490kts
03-Oct-18 16:48 41.032723 -116.406604 150 30998ft 487kts
03-Oct-18 16:49 40.924705 -116.306961 152 30985ft 477kts
03-Oct-18 16:50 40.820614 -116.211828 152 31011ft 471kts
03-Oct-18 16:51 40.714495 -116.114371 152 31016ft 468kts
03-Oct-18 16:52 40.608477 -116.017331 152 31010ft 466kts
03-Oct-18 16:53 40.503036 -115.921094 152 31009ft 464kts
03-Oct-18 16:54 40.398282 -115.825970 151 31010ft 463kts
03-Oct-18 16:55 40.293088 -115.730735 152 31006ft 462kts
03-Oct-18 16:56 40.187894 -115.635848 151 31005ft 461kts
03-Oct-18 16:57 40.082554 -115.541371 152 31004ft 460kts
03-Oct-18 16:58 39.977649 -115.447348 151 31005ft 459kts
03-Oct-18 16:59 39.874378 -115.355508 152 31085ft 457kts
03-Oct-18 17:00 39.771086 -115.264164 152 31097ft 458kts
03-Oct-18 17:01 39.666614 -115.171704 152 31094ft 459kts
03-Oct-18 17:02 39.561306 -115.078802 153 31094ft 459kts
03-Oct-18 17:03 39.456804 -114.986947 153 31093ft 458kts
03-Oct-18 17:04 39.351711 -114.894983 153 31088ft 458kts
03-Oct-18 17:05 39.247358 -114.803916 153 31087ft 457kts
03-Oct-18 17:06 39.162589 -114.685213 115 31090ft 504kts
03-Oct-18 17:07 39.102041 -114.532615 133 31088ft 476kts
03-Oct-18 17:08 39.023752 -114.397661 136 31084ft 474kts
03-Oct-18 17:09 38.947309 -114.272911 137 31078ft 474kts
03-Oct-18 17:10 38.864498 -114.152942 127 31118ft 483kts
03-Oct-18 17:11 38.795923 -114.019205 136 31098ft 473kts
03-Oct-18 17:12 38.715464 -113.887875 137 31083ft 474kts
03-Oct-18 17:13 38.633264 -113.757535 138 31061ft 476kts
03-Oct-18 17:14 38.550239 -113.627585 138 31056ft 476kts
03-Oct-18 17:15 38.467943 -113.498718 138 31064ft 476kts
03-Oct-18 17:16 38.388803 -113.375190 138 31063ft 476kts
03-Oct-18 17:17 38.310909 -113.254613 139 31054ft 474kts
03-Oct-18 17:18 38.233208 -113.134470 139 31054ft 472kts
03-Oct-18 17:19 38.153142 -113.011118 139 31050ft 470kts
03-Oct-18 17:20 38.072526 -112.887184 139 31049ft 469kts
03-Oct-18 17:21 37.992651 -112.764805 139 31073ft 469kts
03-Oct-18 17:22 37.911237 -112.639408 138 31148ft 470kts
03-Oct-18 17:23 37.834138 -112.524028 138 31212ft 474kts
03-Oct-18 17:24 37.759450 -112.410422 138 31212ft 479kts
03-Oct-18 17:25 37.712945 -112.267450 109 31209ft 519kts
03-Oct-18 17:26 37.686213 -112.104657 110 31205ft 521kts
03-Oct-18 17:27 37.659968 -111.946100 110 31205ft 524kts
03-Oct-18 17:28 37.634901 -111.768735 112 31207ft 522kts
03-Oct-18 17:29 37.597894 -111.593714 114 31206ft 522kts
03-Oct-18 17:30 37.558753 -111.420105 114 31069ft 526kts
03-Oct-18 17:31 37.522747 -111.263746 115 31007ft 528kts
03-Oct-18 17:32 37.484267 -111.096219 115 31007ft 527kts
03-Oct-18 17:33 37.444543 -110.924107 114 31008ft 527kts
03-Oct-18 17:34 37.403819 -110.749310 114 31009ft 528kts
03-Oct-18 17:35 37.364961 -110.583102 114 31035ft 528kts
03-Oct-18 17:36 37.323795 -110.408446 114 31168ft 526kts
03-Oct-18 17:37 37.285600 -110.249493 115 31186ft 526kts
03-Oct-18 17:38 37.244987 -110.080278 115 31186ft 527kts
03-Oct-18 17:39 37.203535 -109.908064 115 31187ft 527kts
03-Oct-18 17:40 37.168667 -109.764340 115 31188ft 528kts
03-Oct-18 17:41 37.118910 -109.560612 115 31189ft 528kts
03-Oct-18 17:42 37.083274 -109.415327 115 31189ft 528kts
03-Oct-18 17:43 37.035304 -109.223264 115 31163ft 527kts
03-Oct-18 17:44 36.993668 -109.056741 114 31143ft 527kts
03-Oct-18 17:45 36.958164 -108.915131 113 31141ft 527kts
03-Oct-18 17:46 36.913221 -108.736797 113 31134ft 527kts
03-Oct-18 17:47 36.877110 -108.597783 113 31135ft 527kts
03-Oct-18 17:48 36.834368 -108.432105 113 31127ft 529kts
03-Oct-18 17:49 36.791709 -108.267255 114 31120ft 530kts
03-Oct-18 17:50 36.748272 -108.099781 113 31120ft 531kts
03-Oct-18 17:51 36.671047 -107.969798 156 31136ft 485kts
03-Oct-18 17:52 36.556302 -107.890765 156 31120ft 487kts
03-Oct-18 17:53 36.447792 -107.836849 169 30925ft 437kts
03-Oct-18 17:54 36.347231 -107.782190 156 28603ft 441kts
03-Oct-18 17:55 36.243595 -107.707222 154 26958ft 435kts
03-Oct-18 17:56 36.141494 -107.629646 153 25553ft 428kts
03-Oct-18 17:57 36.044058 -107.555206 153 24858ft 423kts
03-Oct-18 17:58 35.944739 -107.479468 152 24028ft 419kts
03-Oct-18 17:59 35.848718 -107.411949 153 22686ft 412kts
03-Oct-18 18:00 35.755651 -107.343817 153 21169ft 406kts
03-Oct-18 18:01 35.662649 -107.274728 152 19513ft 399kts
03-Oct-18 18:02 35.569969 -107.205502 151 17868ft 391kts
03-Oct-18 18:03 35.479142 -107.137849 151 16142ft 384kts
03-Oct-18 18:04 35.389957 -107.071570 150 14429ft 374kts
03-Oct-18 18:05 35.301669 -107.006217 150 12656ft 369kts
03-Oct-18 18:06 35.216802 -106.943548 149 10857ft 338kts
03-Oct-18 18:07 35.140804 -106.887546 149 8811ft 303kts
03-Oct-18 18:08 35.079185 -106.840872 132 8012ft 238kts
03-Oct-18 18:09 35.047081 -106.773017 105 7860ft 222kts
03-Oct-18 18:10 35.044981 -106.711272 89 6814ft 159kts
03-Oct-18 18:11 35.044621 -106.656404 89 5976ft 163kts
03-Oct-18 18:12 35.044248 -106.604706 90 5327ft 102kts
03-Oct-18 18:13 35.042820 -106.590898 153 5345ft 11kts
03-Oct-18 18:14 35.042575 -106.596948 270 5340ft 28kts
03-Oct-18 18:15 35.042415 -106.608557 270 5327ft 35kts
03-Oct-18 18:16 35.041587 -106.613802 183 5327ft 18kts
03-Oct-18 18:17 35.034950 -106.617371 223 5327ft 35kts
03-Oct-18 18:18 35.031325 -106.623383 307 5325ft 3kts
03-Oct-18 18:19 35.031570 -106.623662 315 5325ft 0kts
03-Oct-18 18:20 35.031570 -106.623662 315 5325ft 0kts
03-Oct-18 18:21 35.031570 -106.623662 315 5325ft 0kts
03-Oct-18 18:22 35.031570 -106.623662 315 5325ft 0kts
03-Oct-18 18:23 35.031570 -106.623662 315 5325ft 0kts
03-Oct-18 18:24 35.031570 -106.623662 315 5325ft 0kts
03-Oct-18 18:25 35.031570 -106.623662 315 5325ft 0kts
03-Oct-18 18:26 35.031570 -106.623662 315 5325ft 0kts
03-Oct-18 18:27 35.031570 -106.623662 315 5325ft 0kts

Navigation Log

Ident Type
Flight plan parsing failed, navigation log unavailable